sensor_id;sensor_type;location;lat;lon;timestamp;temperature;humidity
49765;DHT22;35657;51.204;-4.130;2023-06-14T00:01:02;19.60;99.90
49765;DHT22;35657;51.204;-4.130;2023-06-14T00:03:29;19.60;99.90
49765;DHT22;35657;51.204;-4.130;2023-06-14T00:05:54;19.80;99.90
49765;DHT22;35657;51.204;-4.130;2023-06-14T00:08:20;19.80;99.90
49765;DHT22;35657;51.204;-4.130;2023-06-14T00:10:48;19.90;99.90
49765;DHT22;35657;51.204;-4.130;2023-06-14T00:13:14;20.00;99.90
49765;DHT22;35657;51.204;-4.130;2023-06-14T00:15:40;20.10;99.90
49765;DHT22;35657;51.204;-4.130;2023-06-14T00:18:06;20.10;99.90
49765;DHT22;35657;51.204;-4.130;2023-06-14T00:20:33;20.20;99.90
49765;DHT22;35657;51.204;-4.130;2023-06-14T00:23:00;20.20;99.90
49765;DHT22;35657;51.204;-4.130;2023-06-14T00:25:26;20.30;99.90
49765;DHT22;35657;51.204;-4.130;2023-06-14T00:27:56;20.30;99.90
49765;DHT22;35657;51.204;-4.130;2023-06-14T00:30:22;20.20;99.90
49765;DHT22;35657;51.204;-4.130;2023-06-14T00:32:48;20.10;99.90
49765;DHT22;35657;51.204;-4.130;2023-06-14T00:35:14;20.10;99.90
49765;DHT22;35657;51.204;-4.130;2023-06-14T00:37:40;20.00;99.90
49765;DHT22;35657;51.204;-4.130;2023-06-14T00:40:06;19.90;99.90
49765;DHT22;35657;51.204;-4.130;2023-06-14T00:42:32;19.80;99.90
49765;DHT22;35657;51.204;-4.130;2023-06-14T00:44:59;19.80;99.90
49765;DHT22;35657;51.204;-4.130;2023-06-14T00:47:25;19.80;99.90
49765;DHT22;35657;51.204;-4.130;2023-06-14T00:49:53;19.90;99.90
49765;DHT22;35657;51.204;-4.130;2023-06-14T00:52:19;19.80;99.90
49765;DHT22;35657;51.204;-4.130;2023-06-14T00:54:46;19.80;99.90
49765;DHT22;35657;51.204;-4.130;2023-06-14T00:57:12;19.80;99.90
49765;DHT22;35657;51.204;-4.130;2023-06-14T00:59:43;19.80;99.90
49765;DHT22;35657;51.204;-4.130;2023-06-14T01:02:09;19.90;99.90
49765;DHT22;35657;51.204;-4.130;2023-06-14T01:04:35;19.90;99.90
49765;DHT22;35657;51.204;-4.130;2023-06-14T01:15:30;20.10;99.90
49765;DHT22;35657;51.204;-4.130;2023-06-14T01:17:57;20.20;99.90
49765;DHT22;35657;51.204;-4.130;2023-06-14T01:20:31;20.30;99.90
49765;DHT22;35657;51.204;-4.130;2023-06-14T01:22:58;20.30;99.90
49765;DHT22;35657;51.204;-4.130;2023-06-14T01:25:24;20.40;99.90
49765;DHT22;35657;51.204;-4.130;2023-06-14T01:27:53;20.40;99.90
49765;DHT22;35657;51.204;-4.130;2023-06-14T01:30:20;20.40;99.90
49765;DHT22;35657;51.204;-4.130;2023-06-14T01:32:47;20.40;99.90
49765;DHT22;35657;51.204;-4.130;2023-06-14T01:35:14;20.40;99.90
49765;DHT22;35657;51.204;-4.130;2023-06-14T01:37:40;20.30;99.90
49765;DHT22;35657;51.204;-4.130;2023-06-14T01:40:07;20.20;99.90
49765;DHT22;35657;51.204;-4.130;2023-06-14T01:42:37;20.00;99.90
49765;DHT22;35657;51.204;-4.130;2023-06-14T01:45:04;19.90;99.90
49765;DHT22;35657;51.204;-4.130;2023-06-14T01:47:31;19.80;99.90
49765;DHT22;35657;51.204;-4.130;2023-06-14T01:49:58;19.70;99.90
49765;DHT22;35657;51.204;-4.130;2023-06-14T01:52:24;19.70;99.90
49765;DHT22;35657;51.204;-4.130;2023-06-14T01:54:50;19.70;99.90
49765;DHT22;35657;51.204;-4.130;2023-06-14T01:57:16;19.70;99.90
49765;DHT22;35657;51.204;-4.130;2023-06-14T01:59:42;19.70;99.90
49765;DHT22;35657;51.204;-4.130;2023-06-14T02:02:08;19.70;99.90
49765;DHT22;35657;51.204;-4.130;2023-06-14T02:04:34;19.80;99.90
49765;DHT22;35657;51.204;-4.130;2023-06-14T02:07:00;19.80;99.90
49765;DHT22;35657;51.204;-4.130;2023-06-14T02:09:25;19.80;99.90
49765;DHT22;35657;51.204;-4.130;2023-06-14T02:11:51;19.80;99.90
49765;DHT22;35657;51.204;-4.130;2023-06-14T02:14:17;19.80;99.90
49765;DHT22;35657;51.204;-4.130;2023-06-14T02:16:43;19.80;99.90
49765;DHT22;35657;51.204;-4.130;2023-06-14T02:19:18;19.80;99.90
49765;DHT22;35657;51.204;-4.130;2023-06-14T02:21:44;19.80;99.90
49765;DHT22;35657;51.204;-4.130;2023-06-14T02:24:10;19.90;99.90
49765;DHT22;35657;51.204;-4.130;2023-06-14T02:26:37;19.90;99.90
49765;DHT22;35657;51.204;-4.130;2023-06-14T02:29:04;19.90;99.90
49765;DHT22;35657;51.204;-4.130;2023-06-14T02:31:32;19.90;99.90
49765;DHT22;35657;51.204;-4.130;2023-06-14T02:33:58;19.80;99.90
49765;DHT22;35657;51.204;-4.130;2023-06-14T02:36:24;19.80;99.90
49765;DHT22;35657;51.204;-4.130;2023-06-14T02:38:50;19.70;99.90
49765;DHT22;35657;51.204;-4.130;2023-06-14T02:41:16;19.50;99.90
49765;DHT22;35657;51.204;-4.130;2023-06-14T02:43:42;19.70;99.90
49765;DHT22;35657;51.204;-4.130;2023-06-14T02:46:08;19.70;99.90
49765;DHT22;35657;51.204;-4.130;2023-06-14T02:48:34;19.70;99.90
49765;DHT22;35657;51.204;-4.130;2023-06-14T02:51:00;19.70;99.90
49765;DHT22;35657;51.204;-4.130;2023-06-14T02:53:25;19.60;99.90
49765;DHT22;35657;51.204;-4.130;2023-06-14T02:55:51;19.60;99.90
49765;DHT22;35657;51.204;-4.130;2023-06-14T02:58:17;19.60;99.90
49765;DHT22;35657;51.204;-4.130;2023-06-14T03:00:44;19.50;99.90
49765;DHT22;35657;51.204;-4.130;2023-06-14T03:03:10;19.50;99.90
49765;DHT22;35657;51.204;-4.130;2023-06-14T03:05:45;19.50;99.90
49765;DHT22;35657;51.204;-4.130;2023-06-14T03:08:18;19.50;99.90
49765;DHT22;35657;51.204;-4.130;2023-06-14T03:10:48;19.50;99.90
49765;DHT22;35657;51.204;-4.130;2023-06-14T03:13:15;19.40;99.90
49765;DHT22;35657;51.204;-4.130;2023-06-14T03:15:47;19.40;99.90
49765;DHT22;35657;51.204;-4.130;2023-06-14T03:18:16;19.40;99.90
49765;DHT22;35657;51.204;-4.130;2023-06-14T03:20:42;19.40;99.90
49765;DHT22;35657;51.204;-4.130;2023-06-14T03:23:11;19.40;99.90
49765;DHT22;35657;51.204;-4.130;2023-06-14T03:25:37;19.40;99.90
49765;DHT22;35657;51.204;-4.130;2023-06-14T03:28:04;19.40;99.90
49765;DHT22;35657;51.204;-4.130;2023-06-14T03:30:31;19.50;99.90
49765;DHT22;35657;51.204;-4.130;2023-06-14T03:32:57;19.60;99.90
49765;DHT22;35657;51.204;-4.130;2023-06-14T03:35:27;19.60;99.90
49765;DHT22;35657;51.204;-4.130;2023-06-14T03:37:52;19.70;99.90
49765;DHT22;35657;51.204;-4.130;2023-06-14T03:40:19;19.80;99.90
49765;DHT22;35657;51.204;-4.130;2023-06-14T03:42:55;19.70;99.90
49765;DHT22;35657;51.204;-4.130;2023-06-14T03:45:21;19.80;99.90
49765;DHT22;35657;51.204;-4.130;2023-06-14T03:47:47;19.70;99.90
49765;DHT22;35657;51.204;-4.130;2023-06-14T03:50:13;19.70;99.90
49765;DHT22;35657;51.204;-4.130;2023-06-14T03:52:39;19.70;99.90
49765;DHT22;35657;51.204;-4.130;2023-06-14T03:55:05;19.70;99.90
49765;DHT22;35657;51.204;-4.130;2023-06-14T03:57:31;19.60;99.90
49765;DHT22;35657;51.204;-4.130;2023-06-14T03:59:57;19.50;99.90
49765;DHT22;35657;51.204;-4.130;2023-06-14T04:02:22;19.40;99.90
49765;DHT22;35657;51.204;-4.130;2023-06-14T04:04:49;19.30;99.90
49765;DHT22;35657;51.204;-4.130;2023-06-14T04:07:15;19.30;99.90
49765;DHT22;35657;51.204;-4.130;2023-06-14T04:09:45;19.20;99.90
49765;DHT22;35657;51.204;-4.130;2023-06-14T04:12:11;19.10;99.90
49765;DHT22;35657;51.204;-4.130;2023-06-14T04:14:40;19.10;99.90
49765;DHT22;35657;51.204;-4.130;2023-06-14T04:17:06;19.10;99.90
49765;DHT22;35657;51.204;-4.130;2023-06-14T04:19:32;19.00;99.90
49765;DHT22;35657;51.204;-4.130;2023-06-14T04:21:58;19.00;99.90
49765;DHT22;35657;51.204;-4.130;2023-06-14T04:24:26;18.90;99.90
49765;DHT22;35657;51.204;-4.130;2023-06-14T04:26:54;18.90;99.90
49765;DHT22;35657;51.204;-4.130;2023-06-14T04:29:20;18.90;99.90
49765;DHT22;35657;51.204;-4.130;2023-06-14T04:31:46;18.90;99.90
49765;DHT22;35657;51.204;-4.130;2023-06-14T04:34:13;18.80;99.90
49765;DHT22;35657;51.204;-4.130;2023-06-14T04:36:42;18.80;99.90
49765;DHT22;35657;51.204;-4.130;2023-06-14T04:39:16;18.80;99.90
49765;DHT22;35657;51.204;-4.130;2023-06-14T04:41:43;18.90;99.90
49765;DHT22;35657;51.204;-4.130;2023-06-14T04:44:10;19.00;99.90
49765;DHT22;35657;51.204;-4.130;2023-06-14T04:46:36;19.00;99.90
49765;DHT22;35657;51.204;-4.130;2023-06-14T04:49:17;19.00;99.90
49765;DHT22;35657;51.204;-4.130;2023-06-14T04:51:43;19.10;99.90
49765;DHT22;35657;51.204;-4.130;2023-06-14T04:54:10;19.00;99.90
49765;DHT22;35657;51.204;-4.130;2023-06-14T04:56:38;19.10;99.90
49765;DHT22;35657;51.204;-4.130;2023-06-14T04:59:04;19.10;99.90
49765;DHT22;35657;51.204;-4.130;2023-06-14T05:01:33;19.10;99.90
49765;DHT22;35657;51.204;-4.130;2023-06-14T05:03:59;19.10;99.90
49765;DHT22;35657;51.204;-4.130;2023-06-14T05:06:25;19.00;99.90
49765;DHT22;35657;51.204;-4.130;2023-06-14T05:08:54;18.90;99.90
49765;DHT22;35657;51.204;-4.130;2023-06-14T05:11:20;18.80;99.90
49765;DHT22;35657;51.204;-4.130;2023-06-14T05:13:46;18.80;99.90
49765;DHT22;35657;51.204;-4.130;2023-06-14T05:16:12;18.80;99.90
49765;DHT22;35657;51.204;-4.130;2023-06-14T05:18:41;18.80;99.90
49765;DHT22;35657;51.204;-4.130;2023-06-14T05:21:06;18.70;99.90
49765;DHT22;35657;51.204;-4.130;2023-06-14T05:23:32;18.70;99.90
49765;DHT22;35657;51.204;-4.130;2023-06-14T05:25:58;18.70;99.90
49765;DHT22;35657;51.204;-4.130;2023-06-14T05:28:24;18.80;99.90
49765;DHT22;35657;51.204;-4.130;2023-06-14T05:30:50;18.80;99.90
49765;DHT22;35657;51.204;-4.130;2023-06-14T05:33:16;18.80;99.90
49765;DHT22;35657;51.204;-4.130;2023-06-14T05:35:42;18.80;99.90
49765;DHT22;35657;51.204;-4.130;2023-06-14T05:38:08;18.80;99.90
49765;DHT22;35657;51.204;-4.130;2023-06-14T05:40:34;18.80;99.90
49765;DHT22;35657;51.204;-4.130;2023-06-14T05:43:00;18.90;99.90
49765;DHT22;35657;51.204;-4.130;2023-06-14T05:45:25;18.90;99.90
49765;DHT22;35657;51.204;-4.130;2023-06-14T05:47:52;18.90;99.90
49765;DHT22;35657;51.204;-4.130;2023-06-14T05:50:20;19.00;99.90
49765;DHT22;35657;51.204;-4.130;2023-06-14T05:52:46;19.10;99.90
49765;DHT22;35657;51.204;-4.130;2023-06-14T05:55:12;19.20;99.90
49765;DHT22;35657;51.204;-4.130;2023-06-14T05:57:38;19.30;99.90
49765;DHT22;35657;51.204;-4.130;2023-06-14T06:00:05;19.30;99.90
49765;DHT22;35657;51.204;-4.130;2023-06-14T06:02:36;19.40;99.90
49765;DHT22;35657;51.204;-4.130;2023-06-14T06:05:02;19.40;99.90
49765;DHT22;35657;51.204;-4.130;2023-06-14T06:07:27;19.30;99.90
49765;DHT22;35657;51.204;-4.130;2023-06-14T06:09:53;19.20;99.90
49765;DHT22;35657;51.204;-4.130;2023-06-14T06:12:19;19.10;99.90
49765;DHT22;35657;51.204;-4.130;2023-06-14T06:14:45;19.00;99.90
49765;DHT22;35657;51.204;-4.130;2023-06-14T06:17:11;18.80;99.90
49765;DHT22;35657;51.204;-4.130;2023-06-14T06:19:36;18.80;99.90
49765;DHT22;35657;51.204;-4.130;2023-06-14T06:22:02;18.80;99.90
49765;DHT22;35657;51.204;-4.130;2023-06-14T06:24:31;18.80;99.90
49765;DHT22;35657;51.204;-4.130;2023-06-14T06:26:57;18.80;99.90
49765;DHT22;35657;51.204;-4.130;2023-06-14T06:29:23;18.80;99.90
49765;DHT22;35657;51.204;-4.130;2023-06-14T06:31:49;18.80;99.90
49765;DHT22;35657;51.204;-4.130;2023-06-14T06:34:14;18.90;99.90
49765;DHT22;35657;51.204;-4.130;2023-06-14T06:36:40;18.90;99.90
49765;DHT22;35657;51.204;-4.130;2023-06-14T06:39:06;19.00;99.90
49765;DHT22;35657;51.204;-4.130;2023-06-14T06:41:38;19.10;99.90
49765;DHT22;35657;51.204;-4.130;2023-06-14T06:44:05;19.10;99.90
49765;DHT22;35657;51.204;-4.130;2023-06-14T06:46:32;19.00;99.90
49765;DHT22;35657;51.204;-4.130;2023-06-14T06:48:59;19.10;99.90
49765;DHT22;35657;51.204;-4.130;2023-06-14T06:51:25;19.10;99.90
49765;DHT22;35657;51.204;-4.130;2023-06-14T06:53:54;19.10;99.90
49765;DHT22;35657;51.204;-4.130;2023-06-14T06:56:20;19.10;99.90
49765;DHT22;35657;51.204;-4.130;2023-06-14T06:58:51;19.20;99.90
49765;DHT22;35657;51.204;-4.130;2023-06-14T07:01:17;19.20;99.90
49765;DHT22;35657;51.204;-4.130;2023-06-14T07:03:44;19.20;99.90
49765;DHT22;35657;51.204;-4.130;2023-06-14T07:06:09;19.30;99.90
49765;DHT22;35657;51.204;-4.130;2023-06-14T07:08:36;19.30;99.90
49765;DHT22;35657;51.204;-4.130;2023-06-14T07:11:04;19.30;99.90
49765;DHT22;35657;51.204;-4.130;2023-06-14T07:13:30;19.40;99.90
49765;DHT22;35657;51.204;-4.130;2023-06-14T07:15:59;19.50;99.90
49765;DHT22;35657;51.204;-4.130;2023-06-14T07:18:25;19.50;99.90
49765;DHT22;35657;51.204;-4.130;2023-06-14T07:20:52;19.60;99.90
49765;DHT22;35657;51.204;-4.130;2023-06-14T07:23:19;19.60;99.90
49765;DHT22;35657;51.204;-4.130;2023-06-14T07:25:44;19.70;99.90
49765;DHT22;35657;51.204;-4.130;2023-06-14T07:28:10;19.80;99.90
49765;DHT22;35657;51.204;-4.130;2023-06-14T07:30:36;19.80;99.90
49765;DHT22;35657;51.204;-4.130;2023-06-14T07:33:02;19.90;99.90
49765;DHT22;35657;51.204;-4.130;2023-06-14T07:35:27;20.00;99.90
49765;DHT22;35657;51.204;-4.130;2023-06-14T07:37:53;20.10;99.90
49765;DHT22;35657;51.204;-4.130;2023-06-14T07:40:20;20.10;99.90
49765;DHT22;35657;51.204;-4.130;2023-06-14T07:42:45;20.30;99.90
49765;DHT22;35657;51.204;-4.130;2023-06-14T07:45:13;20.40;99.90
49765;DHT22;35657;51.204;-4.130;2023-06-14T07:47:39;20.60;99.90
49765;DHT22;35657;51.204;-4.130;2023-06-14T07:50:05;20.60;99.90
49765;DHT22;35657;51.204;-4.130;2023-06-14T07:52:31;20.60;99.90
49765;DHT22;35657;51.204;-4.130;2023-06-14T07:54:57;20.60;99.90
49765;DHT22;35657;51.204;-4.130;2023-06-14T07:57:23;20.70;99.90
49765;DHT22;35657;51.204;-4.130;2023-06-14T07:59:49;20.70;99.90
49765;DHT22;35657;51.204;-4.130;2023-06-14T08:02:15;20.90;99.90
49765;DHT22;35657;51.204;-4.130;2023-06-14T08:04:41;20.90;99.90
49765;DHT22;35657;51.204;-4.130;2023-06-14T08:07:07;20.90;99.90
49765;DHT22;35657;51.204;-4.130;2023-06-14T08:09:35;21.00;99.90
49765;DHT22;35657;51.204;-4.130;2023-06-14T08:12:04;21.10;99.90
49765;DHT22;35657;51.204;-4.130;2023-06-14T08:14:33;21.30;99.90
49765;DHT22;35657;51.204;-4.130;2023-06-14T08:16:59;21.40;99.90
49765;DHT22;35657;51.204;-4.130;2023-06-14T08:19:25;21.60;99.90
49765;DHT22;35657;51.204;-4.130;2023-06-14T08:21:50;21.50;99.90
49765;DHT22;35657;51.204;-4.130;2023-06-14T08:24:16;21.60;99.90
49765;DHT22;35657;51.204;-4.130;2023-06-14T08:26:42;21.60;99.90
49765;DHT22;35657;51.204;-4.130;2023-06-14T08:29:08;21.80;99.90
49765;DHT22;35657;51.204;-4.130;2023-06-14T08:31:34;21.70;99.90
49765;DHT22;35657;51.204;-4.130;2023-06-14T08:34:00;21.80;99.90
49765;DHT22;35657;51.204;-4.130;2023-06-14T08:36:26;21.80;99.90
49765;DHT22;35657;51.204;-4.130;2023-06-14T08:38:51;21.80;99.90
49765;DHT22;35657;51.204;-4.130;2023-06-14T08:41:21;21.90;99.90
49765;DHT22;35657;51.204;-4.130;2023-06-14T08:43:47;22.10;99.90
49765;DHT22;35657;51.204;-4.130;2023-06-14T08:46:14;22.30;99.90
49765;DHT22;35657;51.204;-4.130;2023-06-14T08:48:47;22.60;99.90
49765;DHT22;35657;51.204;-4.130;2023-06-14T08:51:18;22.70;99.90
49765;DHT22;35657;51.204;-4.130;2023-06-14T08:53:45;22.80;99.90
49765;DHT22;35657;51.204;-4.130;2023-06-14T08:56:12;22.80;99.90
49765;DHT22;35657;51.204;-4.130;2023-06-14T08:58:43;22.80;99.90
49765;DHT22;35657;51.204;-4.130;2023-06-14T09:01:11;22.70;99.90
49765;DHT22;35657;51.204;-4.130;2023-06-14T09:03:42;22.70;99.90
49765;DHT22;35657;51.204;-4.130;2023-06-14T09:06:09;22.90;99.90
49765;DHT22;35657;51.204;-4.130;2023-06-14T09:08:47;22.90;99.90
49765;DHT22;35657;51.204;-4.130;2023-06-14T09:11:15;22.90;99.90
49765;DHT22;35657;51.204;-4.130;2023-06-14T09:13:42;23.00;99.90
49765;DHT22;35657;51.204;-4.130;2023-06-14T09:16:08;23.00;99.90
49765;DHT22;35657;51.204;-4.130;2023-06-14T09:18:54;23.10;99.90
49765;DHT22;35657;51.204;-4.130;2023-06-14T09:21:20;23.20;99.90
49765;DHT22;35657;51.204;-4.130;2023-06-14T09:23:47;23.40;99.90
49765;DHT22;35657;51.204;-4.130;2023-06-14T09:26:15;23.90;99.90
49765;DHT22;35657;51.204;-4.130;2023-06-14T09:28:45;24.30;99.90
49765;DHT22;35657;51.204;-4.130;2023-06-14T09:31:21;24.00;99.50
49765;DHT22;35657;51.204;-4.130;2023-06-14T09:33:51;24.50;99.90
49765;DHT22;35657;51.204;-4.130;2023-06-14T09:36:21;25.00;99.90
49765;DHT22;35657;51.204;-4.130;2023-06-14T09:39:01;24.80;98.60
49765;DHT22;35657;51.204;-4.130;2023-06-14T09:41:39;25.00;98.10
49765;DHT22;35657;51.204;-4.130;2023-06-14T09:44:09;24.90;99.70
49765;DHT22;35657;51.204;-4.130;2023-06-14T09:46:36;25.00;98.50
49765;DHT22;35657;51.204;-4.130;2023-06-14T09:49:04;25.30;99.90
49765;DHT22;35657;51.204;-4.130;2023-06-14T09:51:30;24.80;96.00
49765;DHT22;35657;51.204;-4.130;2023-06-14T09:54:02;24.80;99.90
49765;DHT22;35657;51.204;-4.130;2023-06-14T09:56:32;25.10;97.10
49765;DHT22;35657;51.204;-4.130;2023-06-14T09:59:00;25.00;94.60
49765;DHT22;35657;51.204;-4.130;2023-06-14T10:01:31;24.60;97.10
49765;DHT22;35657;51.204;-4.130;2023-06-14T10:04:03;24.90;95.30
49765;DHT22;35657;51.204;-4.130;2023-06-14T10:06:29;25.00;94.00
49765;DHT22;35657;51.204;-4.130;2023-06-14T10:09:00;24.80;93.70
49765;DHT22;35657;51.204;-4.130;2023-06-14T10:11:26;24.60;93.80
49765;DHT22;35657;51.204;-4.130;2023-06-14T10:13:54;25.00;93.20
49765;DHT22;35657;51.204;-4.130;2023-06-14T10:24:16;24.50;90.90
49765;DHT22;35657;51.204;-4.130;2023-06-14T10:26:51;24.50;90.30
49765;DHT22;35657;51.204;-4.130;2023-06-14T10:29:18;24.50;90.00
49765;DHT22;35657;51.204;-4.130;2023-06-14T10:34:11;24.70;89.20
49765;DHT22;35657;51.204;-4.130;2023-06-14T10:36:42;24.50;88.10
49765;DHT22;35657;51.204;-4.130;2023-06-14T10:39:16;24.30;87.80
49765;DHT22;35657;51.204;-4.130;2023-06-14T10:41:53;24.20;85.80
49765;DHT22;35657;51.204;-4.130;2023-06-14T10:46:49;24.50;83.90
49765;DHT22;35657;51.204;-4.130;2023-06-14T10:49:19;24.60;83.00
49765;DHT22;35657;51.204;-4.130;2023-06-14T10:51:49;24.70;81.70
49765;DHT22;35657;51.204;-4.130;2023-06-14T10:54:16;24.90;83.50
49765;DHT22;35657;51.204;-4.130;2023-06-14T10:56:50;25.50;86.20
49765;DHT22;35657;51.204;-4.130;2023-06-14T10:59:17;25.50;81.20
49765;DHT22;35657;51.204;-4.130;2023-06-14T11:04:17;25.40;79.50
49765;DHT22;35657;51.204;-4.130;2023-06-14T11:06:49;25.50;81.50
49765;DHT22;35657;51.204;-4.130;2023-06-14T11:12:10;25.60;79.80
49765;DHT22;35657;51.204;-4.130;2023-06-14T11:14:39;25.40;78.40
49765;DHT22;35657;51.204;-4.130;2023-06-14T11:17:05;25.50;79.50
49765;DHT22;35657;51.204;-4.130;2023-06-14T11:19:31;26.00;79.30
49765;DHT22;35657;51.204;-4.130;2023-06-14T11:21:57;25.50;77.80
49765;DHT22;35657;51.204;-4.130;2023-06-14T11:24:23;25.50;77.80
49765;DHT22;35657;51.204;-4.130;2023-06-14T11:26:49;25.60;77.70
49765;DHT22;35657;51.204;-4.130;2023-06-14T11:29:15;25.50;77.90
49765;DHT22;35657;51.204;-4.130;2023-06-14T11:31:45;25.40;77.90
49765;DHT22;35657;51.204;-4.130;2023-06-14T11:34:12;25.60;77.80
49765;DHT22;35657;51.204;-4.130;2023-06-14T11:36:38;25.60;77.30
49765;DHT22;35657;51.204;-4.130;2023-06-14T11:39:05;25.80;77.90
49765;DHT22;35657;51.204;-4.130;2023-06-14T11:41:43;26.10;78.10
49765;DHT22;35657;51.204;-4.130;2023-06-14T11:44:09;25.80;77.30
49765;DHT22;35657;51.204;-4.130;2023-06-14T11:46:36;25.40;76.80
49765;DHT22;35657;51.204;-4.130;2023-06-14T11:49:03;25.60;79.40
49765;DHT22;35657;51.204;-4.130;2023-06-14T11:51:33;25.70;76.30
49765;DHT22;35657;51.204;-4.130;2023-06-14T11:54:02;25.70;76.90
49765;DHT22;35657;51.204;-4.130;2023-06-14T11:56:29;25.60;76.40
49765;DHT22;35657;51.204;-4.130;2023-06-14T11:58:55;26.00;76.70
49765;DHT22;35657;51.204;-4.130;2023-06-14T12:01:22;26.10;76.20
49765;DHT22;35657;51.204;-4.130;2023-06-14T12:03:49;26.40;77.60
49765;DHT22;35657;51.204;-4.130;2023-06-14T12:06:15;26.30;78.40
49765;DHT22;35657;51.204;-4.130;2023-06-14T12:08:44;26.30;78.90
49765;DHT22;35657;51.204;-4.130;2023-06-14T12:11:12;26.40;77.50
49765;DHT22;35657;51.204;-4.130;2023-06-14T12:13:39;26.10;77.60
49765;DHT22;35657;51.204;-4.130;2023-06-14T12:16:11;25.80;76.20
49765;DHT22;35657;51.204;-4.130;2023-06-14T12:18:38;25.90;76.50
49765;DHT22;35657;51.204;-4.130;2023-06-14T12:21:08;26.10;77.10
49765;DHT22;35657;51.204;-4.130;2023-06-14T12:23:46;26.00;75.90
49765;DHT22;35657;51.204;-4.130;2023-06-14T12:26:17;25.60;77.10
49765;DHT22;35657;51.204;-4.130;2023-06-14T12:28:44;25.70;76.00
49765;DHT22;35657;51.204;-4.130;2023-06-14T12:31:15;25.60;77.10
49765;DHT22;35657;51.204;-4.130;2023-06-14T12:33:42;25.20;75.70
49765;DHT22;35657;51.204;-4.130;2023-06-14T12:36:08;25.10;77.70
49765;DHT22;35657;51.204;-4.130;2023-06-14T12:38:35;25.50;75.70
49765;DHT22;35657;51.204;-4.130;2023-06-14T12:41:01;25.20;75.20
49765;DHT22;35657;51.204;-4.130;2023-06-14T12:43:27;25.00;74.40
49765;DHT22;35657;51.204;-4.130;2023-06-14T12:45:53;24.80;75.50
49765;DHT22;35657;51.204;-4.130;2023-06-14T12:48:19;24.90;73.80
49765;DHT22;35657;51.204;-4.130;2023-06-14T12:50:45;24.80;75.40
49765;DHT22;35657;51.204;-4.130;2023-06-14T12:53:11;24.90;72.40
49765;DHT22;35657;51.204;-4.130;2023-06-14T12:55:37;24.90;74.00
49765;DHT22;35657;51.204;-4.130;2023-06-14T12:58:03;25.00;71.60
49765;DHT22;35657;51.204;-4.130;2023-06-14T13:00:29;24.70;72.40
49765;DHT22;35657;51.204;-4.130;2023-06-14T13:02:58;24.70;72.30
49765;DHT22;35657;51.204;-4.130;2023-06-14T13:05:24;24.70;69.00
49765;DHT22;35657;51.204;-4.130;2023-06-14T13:07:50;25.00;69.90
49765;DHT22;35657;51.204;-4.130;2023-06-14T13:10:16;25.00;69.10
49765;DHT22;35657;51.204;-4.130;2023-06-14T13:12:42;25.00;73.30
49765;DHT22;35657;51.204;-4.130;2023-06-14T13:15:08;25.10;69.10
49765;DHT22;35657;51.204;-4.130;2023-06-14T13:17:35;25.00;67.40
49765;DHT22;35657;51.204;-4.130;2023-06-14T13:20:05;24.90;66.80
49765;DHT22;35657;51.204;-4.130;2023-06-14T13:22:32;24.90;63.90
49765;DHT22;35657;51.204;-4.130;2023-06-14T13:24:58;24.80;63.70
49765;DHT22;35657;51.204;-4.130;2023-06-14T13:27:25;24.70;69.50
49765;DHT22;35657;51.204;-4.130;2023-06-14T13:29:51;24.90;65.20
49765;DHT22;35657;51.204;-4.130;2023-06-14T13:32:16;24.80;64.10
49765;DHT22;35657;51.204;-4.130;2023-06-14T13:34:42;24.80;65.30
49765;DHT22;35657;51.204;-4.130;2023-06-14T13:37:08;25.10;65.70
49765;DHT22;35657;51.204;-4.130;2023-06-14T13:39:34;25.30;70.50
49765;DHT22;35657;51.204;-4.130;2023-06-14T13:42:03;25.10;64.50
49765;DHT22;35657;51.204;-4.130;2023-06-14T13:44:29;24.90;63.00
49765;DHT22;35657;51.204;-4.130;2023-06-14T13:46:54;25.20;64.70
49765;DHT22;35657;51.204;-4.130;2023-06-14T13:49:20;25.10;63.40
49765;DHT22;35657;51.204;-4.130;2023-06-14T13:51:46;25.50;62.80
49765;DHT22;35657;51.204;-4.130;2023-06-14T13:54:14;25.80;61.80
49765;DHT22;35657;51.204;-4.130;2023-06-14T13:56:41;25.50;60.70
49765;DHT22;35657;51.204;-4.130;2023-06-14T13:59:06;25.30;62.50
49765;DHT22;35657;51.204;-4.130;2023-06-14T14:01:32;25.50;60.90
49765;DHT22;35657;51.204;-4.130;2023-06-14T14:03:58;25.60;59.80
49765;DHT22;35657;51.204;-4.130;2023-06-14T14:06:26;25.90;62.20
49765;DHT22;35657;51.204;-4.130;2023-06-14T14:08:52;25.60;60.10
49765;DHT22;35657;51.204;-4.130;2023-06-14T14:11:18;25.80;66.30
49765;DHT22;35657;51.204;-4.130;2023-06-14T14:13:44;25.70;61.90
49765;DHT22;35657;51.204;-4.130;2023-06-14T14:16:10;25.30;60.40
49765;DHT22;35657;51.204;-4.130;2023-06-14T14:18:36;25.40;58.40
49765;DHT22;35657;51.204;-4.130;2023-06-14T14:21:03;25.40;60.20
49765;DHT22;35657;51.204;-4.130;2023-06-14T14:23:28;25.60;62.20
49765;DHT22;35657;51.204;-4.130;2023-06-14T14:25:55;25.70;61.10
49765;DHT22;35657;51.204;-4.130;2023-06-14T14:28:20;25.20;64.10
49765;DHT22;35657;51.204;-4.130;2023-06-14T14:30:47;25.10;60.80
49765;DHT22;35657;51.204;-4.130;2023-06-14T14:33:16;25.40;63.70
49765;DHT22;35657;51.204;-4.130;2023-06-14T14:35:46;25.20;62.80
49765;DHT22;35657;51.204;-4.130;2023-06-14T14:38:15;25.30;66.30
49765;DHT22;35657;51.204;-4.130;2023-06-14T14:40:44;25.40;61.90
49765;DHT22;35657;51.204;-4.130;2023-06-14T14:43:10;25.30;61.90
49765;DHT22;35657;51.204;-4.130;2023-06-14T14:45:36;25.30;62.00
49765;DHT22;35657;51.204;-4.130;2023-06-14T14:48:02;25.10;63.90
49765;DHT22;35657;51.204;-4.130;2023-06-14T14:50:28;25.10;64.80
49765;DHT22;35657;51.204;-4.130;2023-06-14T14:52:54;25.20;71.30
49765;DHT22;35657;51.204;-4.130;2023-06-14T14:55:20;25.10;66.70
49765;DHT22;35657;51.204;-4.130;2023-06-14T14:57:46;25.00;63.60
49765;DHT22;35657;51.204;-4.130;2023-06-14T15:00:13;25.20;64.90
49765;DHT22;35657;51.204;-4.130;2023-06-14T15:02:39;25.20;59.80
49765;DHT22;35657;51.204;-4.130;2023-06-14T15:05:05;24.90;62.00
49765;DHT22;35657;51.204;-4.130;2023-06-14T15:07:31;24.80;64.20
49765;DHT22;35657;51.204;-4.130;2023-06-14T15:09:59;24.60;63.10
49765;DHT22;35657;51.204;-4.130;2023-06-14T15:12:25;25.20;67.00
49765;DHT22;35657;51.204;-4.130;2023-06-14T15:14:51;24.90;62.60
49765;DHT22;35657;51.204;-4.130;2023-06-14T15:17:18;24.70;61.40
49765;DHT22;35657;51.204;-4.130;2023-06-14T15:19:44;24.50;61.30
49765;DHT22;35657;51.204;-4.130;2023-06-14T15:22:10;24.60;63.70
49765;DHT22;35657;51.204;-4.130;2023-06-14T15:24:36;25.20;65.30
49765;DHT22;35657;51.204;-4.130;2023-06-14T15:27:02;25.00;62.80
49765;DHT22;35657;51.204;-4.130;2023-06-14T15:29:28;25.20;66.50
49765;DHT22;35657;51.204;-4.130;2023-06-14T15:31:54;25.20;65.50
49765;DHT22;35657;51.204;-4.130;2023-06-14T15:34:20;25.10;63.70
49765;DHT22;35657;51.204;-4.130;2023-06-14T15:36:46;25.30;65.90
49765;DHT22;35657;51.204;-4.130;2023-06-14T15:39:12;25.00;64.70
49765;DHT22;35657;51.204;-4.130;2023-06-14T15:41:38;24.80;65.30